RYR363C LEMI-EGHH
Flight info
| Callsign | RYR363C |
|---|---|
| Flight time | 2h 4m |
| Altitude | 38000 |
| Route | ALT N851 MITOS N608 COMPI Y90 USKAR DCT MOPAS DCT GIROM DCT AGN DCT SECHE DCT UVELI DCT CNA DCT MANAK UY110 ORIST Y110 THRED |
| Aircraft | B738/M-SDE2E3FGHIRWXY/LB1 |
Departure
| Time | 2026-05-04 11:13 |
|---|---|
| Airport | Region of Murcia International Airport (LEMI) |
Arrival
| Time | 2026-05-04 13:18 |
|---|---|
| Airport | Bournemouth Airport (EGHH) |
| Time | Latitude | Longitude | Altitude | Speed | Heading |
|---|---|---|---|---|---|
| 2026-05-04 10:49 | 37.80431 | -1.13026 | 647 ft | 0 kts | 315° |
| 2026-05-04 11:05 | 37.80361 | -1.12973 | 646 ft | 0 kts | 45° |
| 2026-05-04 11:08 | 37.80457 | -1.12845 | 646 ft | 8 kts | 65° |
| 2026-05-04 11:10 | 37.80673 | -1.12317 | 650 ft | 17 kts | 45° |
| 2026-05-04 11:12 | 37.81332 | -1.11473 | 650 ft | 14 kts | 44° |
| 2026-05-04 11:12 | 37.81325 | -1.11366 | 648 ft | 14 kts | 134° |
| 2026-05-04 11:12 | 37.81251 | -1.11297 | 646 ft | 13 kts | 175° |
| 2026-05-04 11:12 | 37.81162 | -1.11378 | 648 ft | 29 kts | 223° |
| 2026-05-04 11:13 | 37.80857 | -1.11770 | 642 ft | 96 kts | 225° |
| 2026-05-04 11:13 | 37.80246 | -1.12549 | 645 ft | 151 kts | 222° |
| 2026-05-04 11:13 | 37.79452 | -1.13586 | 998 ft | 172 kts | 225° |
| 2026-05-04 11:13 | 37.78620 | -1.14517 | 2070 ft | 148 kts | 216° |
| 2026-05-04 11:14 | 37.78352 | -1.14763 | 2366 ft | 147 kts | 214° |
| 2026-05-04 11:14 | 37.76411 | -1.16375 | 3440 ft | 173 kts | 209° |
| 2026-05-04 11:16 | 37.66873 | -1.26638 | 8228 ft | 254 kts | 225° |
| 2026-05-04 11:16 | 37.65900 | -1.28415 | 8480 ft | 250 kts | 249° |
| 2026-05-04 11:16 | 37.65592 | -1.30574 | 8479 ft | 257 kts | 269° |
| 2026-05-04 11:17 | 37.65957 | -1.32809 | 8479 ft | 260 kts | 291° |
| 2026-05-04 11:17 | 37.66967 | -1.34676 | 8481 ft | 265 kts | 313° |
| 2026-05-04 11:19 | 37.79103 | -1.26645 | 11382 ft | 372 kts | 48° |
| 2026-05-04 11:19 | 37.80791 | -1.24137 | 12078 ft | 376 kts | 48° |
| 2026-05-04 11:19 | 37.82485 | -1.21642 | 12748 ft | 380 kts | 47° |
| 2026-05-04 11:19 | 37.84232 | -1.19087 | 13414 ft | 385 kts | 47° |
| 2026-05-04 11:20 | 37.86000 | -1.16515 | 14040 ft | 391 kts | 47° |
| 2026-05-04 11:20 | 37.87804 | -1.13899 | 14604 ft | 397 kts | 47° |
| 2026-05-04 11:20 | 37.89636 | -1.11246 | 15190 ft | 402 kts | 47° |
| 2026-05-04 11:20 | 37.91491 | -1.08560 | 15778 ft | 407 kts | 47° |
| 2026-05-04 11:22 | 38.05046 | -0.88868 | 19684 ft | 439 kts | 47° |
| 2026-05-04 11:22 | 38.07061 | -0.85929 | 20189 ft | 443 kts | 47° |
| 2026-05-04 11:23 | 38.09091 | -0.82966 | 20663 ft | 447 kts | 47° |
| 2026-05-04 11:23 | 38.11149 | -0.79959 | 21148 ft | 451 kts | 47° |
| 2026-05-04 11:24 | 38.23783 | -0.61432 | 23873 ft | 473 kts | 46° |
| 2026-05-04 11:25 | 38.26151 | -0.58525 | 24236 ft | 474 kts | 36° |
| 2026-05-04 11:25 | 38.28846 | -0.56121 | 24681 ft | 473 kts | 27° |
| 2026-05-04 11:25 | 38.31787 | -0.54250 | 25121 ft | 470 kts | 18° |
| 2026-05-04 11:26 | 38.37909 | -0.51173 | 26019 ft | 476 kts | 16° |
| 2026-05-04 11:27 | 38.59877 | -0.40040 | 28511 ft | 494 kts | 17° |
| 2026-05-04 11:28 | 38.63084 | -0.38383 | 28837 ft | 497 kts | 17° |
| 2026-05-04 11:28 | 38.66251 | -0.36746 | 29168 ft | 499 kts | 17° |
| 2026-05-04 11:28 | 38.69488 | -0.35072 | 29544 ft | 501 kts | 17° |
| 2026-05-04 11:28 | 38.72727 | -0.33395 | 29843 ft | 504 kts | 17° |
| 2026-05-04 11:29 | 38.75990 | -0.31706 | 30087 ft | 507 kts | 17° |
| 2026-05-04 11:29 | 38.79271 | -0.30006 | 30329 ft | 509 kts | 17° |
| 2026-05-04 11:29 | 38.82559 | -0.28300 | 30593 ft | 510 kts | 17° |
| 2026-05-04 11:29 | 38.85824 | -0.26604 | 30843 ft | 512 kts | 17° |
| 2026-05-04 11:31 | 39.08865 | -0.14586 | 32931 ft | 510 kts | 18° |
| 2026-05-04 11:33 | 39.31905 | -0.02486 | 34781 ft | 508 kts | 18° |
| 2026-05-04 11:33 | 39.35179 | -0.00774 | 35019 ft | 507 kts | 16° |
| 2026-05-04 11:33 | 39.38283 | 0.00586 | 35227 ft | 503 kts | 12° |
| 2026-05-04 11:34 | 39.41641 | 0.01847 | 35452 ft | 502 kts | 10° |
| 2026-05-04 11:34 | 39.45012 | 0.03029 | 35663 ft | 501 kts | 9° |
| 2026-05-04 11:34 | 39.48377 | 0.04196 | 35895 ft | 500 kts | 9° |
| 2026-05-04 11:34 | 39.51736 | 0.05379 | 36141 ft | 500 kts | 9° |
| 2026-05-04 11:35 | 39.55081 | 0.06583 | 36345 ft | 499 kts | 10° |
| 2026-05-04 11:35 | 39.58424 | 0.07808 | 36573 ft | 499 kts | 10° |
| 2026-05-04 11:35 | 39.61773 | 0.09048 | 36737 ft | 500 kts | 10° |
| 2026-05-04 11:35 | 39.65118 | 0.10293 | 36907 ft | 500 kts | 11° |
| 2026-05-04 11:36 | 39.68464 | 0.11542 | 37119 ft | 499 kts | 11° |
| 2026-05-04 11:36 | 39.71789 | 0.12784 | 37394 ft | 497 kts | 10° |
| 2026-05-04 11:36 | 39.75110 | 0.14025 | 37665 ft | 494 kts | 10° |
| 2026-05-04 11:36 | 39.78415 | 0.15259 | 37902 ft | 493 kts | 10° |
| 2026-05-04 11:37 | 39.85032 | 0.17726 | 37964 ft | 497 kts | 10° |
| 2026-05-04 11:37 | 39.91682 | 0.20215 | 37955 ft | 495 kts | 11° |
| 2026-05-04 11:38 | 39.98258 | 0.22683 | 37969 ft | 493 kts | 11° |
| 2026-05-04 11:38 | 40.04825 | 0.25148 | 37977 ft | 491 kts | 11° |
| 2026-05-04 11:39 | 40.08117 | 0.26384 | 37987 ft | 491 kts | 11° |
| 2026-05-04 11:41 | 40.32301 | 0.35501 | 37991 ft | 490 kts | 11° |
| 2026-05-04 11:41 | 40.38869 | 0.37996 | 37968 ft | 491 kts | 11° |
| 2026-05-04 11:42 | 40.45407 | 0.40488 | 37967 ft | 492 kts | 11° |
| 2026-05-04 11:42 | 40.48704 | 0.41746 | 37977 ft | 493 kts | 11° |
| 2026-05-04 11:43 | 40.52886 | 0.43344 | 37971 ft | 494 kts | 11° |
| 2026-05-04 11:43 | 40.59435 | 0.45850 | 37967 ft | 496 kts | 11° |
| 2026-05-04 11:44 | 40.66070 | 0.48394 | 37960 ft | 497 kts | 11° |
| 2026-05-04 11:44 | 40.71606 | 0.50521 | 37954 ft | 499 kts | 11° |
| 2026-05-04 11:45 | 40.78251 | 0.53079 | 37955 ft | 499 kts | 11° |
| 2026-05-04 11:45 | 40.84929 | 0.55655 | 37960 ft | 499 kts | 11° |
| 2026-05-04 11:46 | 40.91604 | 0.58236 | 37980 ft | 499 kts | 11° |
| 2026-05-04 11:46 | 40.98234 | 0.60804 | 37949 ft | 498 kts | 11° |
| 2026-05-04 11:47 | 41.04876 | 0.63384 | 37958 ft | 495 kts | 11° |
| 2026-05-04 11:47 | 41.11488 | 0.65954 | 37954 ft | 494 kts | 11° |
| 2026-05-04 11:48 | 41.18046 | 0.68508 | 37956 ft | 493 kts | 11° |
| 2026-05-04 11:48 | 41.24631 | 0.71073 | 37947 ft | 491 kts | 11° |
| 2026-05-04 11:49 | 41.31197 | 0.73635 | 37953 ft | 491 kts | 11° |
| 2026-05-04 11:49 | 41.37709 | 0.76183 | 37957 ft | 490 kts | 12° |
| 2026-05-04 11:50 | 41.44251 | 0.78748 | 37943 ft | 489 kts | 11° |
| 2026-05-04 11:50 | 41.50795 | 0.81319 | 37956 ft | 489 kts | 11° |
| 2026-05-04 11:51 | 41.57327 | 0.83891 | 37982 ft | 490 kts | 12° |
| 2026-05-04 11:51 | 41.63877 | 0.86475 | 37962 ft | 491 kts | 12° |
| 2026-05-04 11:52 | 41.70401 | 0.89054 | 37955 ft | 492 kts | 12° |
| 2026-05-04 11:52 | 41.76972 | 0.91659 | 37959 ft | 493 kts | 12° |
| 2026-05-04 11:53 | 41.83570 | 0.94278 | 37958 ft | 494 kts | 12° |
| 2026-05-04 11:53 | 41.90137 | 0.96892 | 37945 ft | 495 kts | 12° |
| 2026-05-04 11:55 | 42.09554 | 1.04631 | 37953 ft | 496 kts | 9° |
| 2026-05-04 11:55 | 42.12894 | 1.05317 | 37946 ft | 486 kts | 355° |
| 2026-05-04 11:56 | 42.16232 | 1.05125 | 37953 ft | 476 kts | 345° |
| 2026-05-04 11:56 | 42.19441 | 1.04191 | 37983 ft | 464 kts | 333° |
| 2026-05-04 11:56 | 42.22443 | 1.02661 | 37986 ft | 461 kts | 331° |
| 2026-05-04 11:57 | 42.28419 | 0.99475 | 37970 ft | 461 kts | 331° |
| 2026-05-04 11:57 | 42.34363 | 0.96330 | 37976 ft | 461 kts | 331° |
| 2026-05-04 11:58 | 42.40360 | 0.93200 | 37965 ft | 461 kts | 332° |
| 2026-05-04 11:58 | 42.46366 | 0.90080 | 37959 ft | 462 kts | 332° |
| 2026-05-04 11:59 | 42.52350 | 0.86973 | 37964 ft | 459 kts | 332° |
| 2026-05-04 11:59 | 42.58305 | 0.83869 | 37983 ft | 458 kts | 332° |
| 2026-05-04 12:00 | 42.64244 | 0.80766 | 37988 ft | 455 kts | 332° |
| 2026-05-04 12:00 | 42.70134 | 0.77680 | 37923 ft | 456 kts | 332° |
| 2026-05-04 12:01 | 42.76036 | 0.74584 | 37981 ft | 455 kts | 332° |
| 2026-05-04 12:02 | 42.97081 | 0.63488 | 37938 ft | 466 kts | 332° |
| 2026-05-04 12:03 | 43.03114 | 0.60295 | 37958 ft | 465 kts | 332° |
| 2026-05-04 12:03 | 43.09147 | 0.57095 | 37941 ft | 465 kts | 332° |
| 2026-05-04 12:04 | 43.15142 | 0.53907 | 37946 ft | 465 kts | 332° |
| 2026-05-04 12:04 | 43.21193 | 0.50682 | 37936 ft | 466 kts | 332° |
| 2026-05-04 12:05 | 43.27242 | 0.47451 | 37943 ft | 466 kts | 332° |
| 2026-05-04 12:05 | 43.31009 | 0.45435 | 37952 ft | 466 kts | 332° |
| 2026-05-04 12:06 | 43.37063 | 0.42191 | 37934 ft | 466 kts | 332° |
| 2026-05-04 12:06 | 43.43069 | 0.38966 | 37963 ft | 466 kts | 332° |
| 2026-05-04 12:07 | 43.49115 | 0.35711 | 37945 ft | 466 kts | 333° |
| 2026-05-04 12:07 | 43.55151 | 0.32456 | 37951 ft | 465 kts | 333° |
| 2026-05-04 12:08 | 43.61162 | 0.29207 | 37955 ft | 464 kts | 333° |
| 2026-05-04 12:08 | 43.67133 | 0.25972 | 37959 ft | 463 kts | 333° |
| 2026-05-04 12:09 | 43.73124 | 0.22720 | 37952 ft | 462 kts | 333° |
| 2026-05-04 12:09 | 43.79109 | 0.19464 | 37951 ft | 461 kts | 333° |
| 2026-05-04 12:10 | 43.85051 | 0.16224 | 37957 ft | 460 kts | 333° |
| 2026-05-04 12:10 | 43.91005 | 0.12971 | 37951 ft | 459 kts | 333° |
| 2026-05-04 12:11 | 43.96940 | 0.09721 | 37952 ft | 459 kts | 333° |
| 2026-05-04 12:11 | 44.02870 | 0.06466 | 37956 ft | 459 kts | 333° |
| 2026-05-04 12:12 | 44.08825 | 0.03190 | 37947 ft | 460 kts | 334° |
| 2026-05-04 12:12 | 44.14676 | -0.00035 | 37954 ft | 461 kts | 334° |
| 2026-05-04 12:14 | 44.38637 | -0.13313 | 37937 ft | 468 kts | 334° |
| 2026-05-04 12:15 | 44.44690 | -0.16686 | 37947 ft | 469 kts | 334° |
| 2026-05-04 12:15 | 44.50762 | -0.20076 | 37934 ft | 469 kts | 334° |
| 2026-05-04 12:16 | 44.56825 | -0.23469 | 37930 ft | 469 kts | 334° |
| 2026-05-04 12:16 | 44.62755 | -0.26795 | 37936 ft | 468 kts | 334° |
| 2026-05-04 12:17 | 44.68767 | -0.30175 | 37923 ft | 468 kts | 334° |
| 2026-05-04 12:17 | 44.74240 | -0.33259 | 37929 ft | 466 kts | 334° |
| 2026-05-04 12:18 | 44.80227 | -0.36639 | 37931 ft | 465 kts | 334° |
| 2026-05-04 12:18 | 44.86235 | -0.40038 | 37933 ft | 464 kts | 334° |
| 2026-05-04 12:19 | 44.92228 | -0.43438 | 37933 ft | 463 kts | 334° |
| 2026-05-04 12:19 | 44.98168 | -0.46814 | 37943 ft | 462 kts | 334° |
| 2026-05-04 12:20 | 45.04120 | -0.50205 | 37945 ft | 462 kts | 334° |
| 2026-05-04 12:20 | 45.10088 | -0.53614 | 37941 ft | 462 kts | 334° |
| 2026-05-04 12:21 | 45.16027 | -0.57013 | 37931 ft | 463 kts | 334° |
| 2026-05-04 12:21 | 45.22005 | -0.60442 | 37939 ft | 463 kts | 334° |
| 2026-05-04 12:22 | 45.27990 | -0.63883 | 37945 ft | 464 kts | 334° |
| 2026-05-04 12:22 | 45.33988 | -0.67339 | 37944 ft | 465 kts | 334° |
| 2026-05-04 12:23 | 45.39988 | -0.70805 | 37954 ft | 466 kts | 334° |
| 2026-05-04 12:23 | 45.46012 | -0.74292 | 37946 ft | 467 kts | 334° |
| 2026-05-04 12:24 | 45.52002 | -0.77767 | 37945 ft | 468 kts | 334° |
| 2026-05-04 12:24 | 45.57417 | -0.80916 | 37957 ft | 469 kts | 334° |
| 2026-05-04 12:25 | 45.63468 | -0.84443 | 37943 ft | 469 kts | 334° |
| 2026-05-04 12:25 | 45.69521 | -0.87978 | 37953 ft | 469 kts | 334° |
| 2026-05-04 12:26 | 45.75552 | -0.91509 | 37951 ft | 470 kts | 334° |
| 2026-05-04 12:26 | 45.81604 | -0.95061 | 37956 ft | 470 kts | 334° |
| 2026-05-04 12:27 | 45.87634 | -0.98607 | 37953 ft | 469 kts | 334° |
| 2026-05-04 12:27 | 45.93477 | -1.02052 | 37959 ft | 467 kts | 334° |
| 2026-05-04 12:28 | 45.99486 | -1.05604 | 37962 ft | 467 kts | 335° |
| 2026-05-04 12:28 | 46.04467 | -1.08554 | 37963 ft | 466 kts | 335° |
| 2026-05-04 12:29 | 46.10444 | -1.12101 | 37962 ft | 464 kts | 334° |
| 2026-05-04 12:29 | 46.17371 | -1.16223 | 37972 ft | 462 kts | 335° |
| 2026-05-04 12:30 | 46.22348 | -1.19192 | 37966 ft | 461 kts | 335° |
| 2026-05-04 12:30 | 46.28239 | -1.22714 | 37973 ft | 461 kts | 335° |
| 2026-05-04 12:31 | 46.34169 | -1.26267 | 37966 ft | 461 kts | 335° |
| 2026-05-04 12:31 | 46.40099 | -1.29829 | 37971 ft | 461 kts | 335° |
| 2026-05-04 12:32 | 46.49005 | -1.35194 | 37984 ft | 463 kts | 335° |
| 2026-05-04 12:33 | 46.54966 | -1.38795 | 37997 ft | 464 kts | 335° |
| 2026-05-04 12:33 | 46.60913 | -1.42397 | 38001 ft | 466 kts | 335° |
| 2026-05-04 12:34 | 46.66928 | -1.46049 | 37997 ft | 468 kts | 335° |
| 2026-05-04 12:34 | 46.72939 | -1.49706 | 37996 ft | 469 kts | 335° |
| 2026-05-04 12:35 | 46.76630 | -1.51957 | 37995 ft | 469 kts | 335° |
| 2026-05-04 12:35 | 46.82655 | -1.55638 | 37983 ft | 469 kts | 335° |
| 2026-05-04 12:36 | 46.88859 | -1.58571 | 37973 ft | 472 kts | 349° |
| 2026-05-04 12:36 | 46.95384 | -1.59328 | 37976 ft | 472 kts | 355° |
| 2026-05-04 12:37 | 47.01938 | -1.59859 | 37970 ft | 472 kts | 355° |
| 2026-05-04 12:37 | 47.08493 | -1.60504 | 37972 ft | 471 kts | 354° |
| 2026-05-04 12:38 | 47.15038 | -1.61189 | 37967 ft | 471 kts | 354° |
| 2026-05-04 12:38 | 47.21569 | -1.61986 | 37969 ft | 470 kts | 353° |
| 2026-05-04 12:39 | 47.28039 | -1.62897 | 37961 ft | 470 kts | 353° |
| 2026-05-04 12:39 | 47.34558 | -1.63783 | 37969 ft | 469 kts | 353° |
| 2026-05-04 12:40 | 47.41056 | -1.64688 | 37974 ft | 469 kts | 353° |
| 2026-05-04 12:40 | 47.47562 | -1.65623 | 37983 ft | 470 kts | 353° |
| 2026-05-04 12:41 | 47.54088 | -1.66562 | 37972 ft | 470 kts | 353° |
| 2026-05-04 12:41 | 47.60592 | -1.67495 | 37991 ft | 469 kts | 353° |
| 2026-05-04 12:42 | 47.67035 | -1.68420 | 37970 ft | 469 kts | 353° |
| 2026-05-04 12:42 | 47.73552 | -1.69359 | 37965 ft | 471 kts | 353° |
| 2026-05-04 12:43 | 47.80066 | -1.70299 | 37974 ft | 470 kts | 353° |
| 2026-05-04 12:43 | 47.86572 | -1.71241 | 37965 ft | 469 kts | 353° |
| 2026-05-04 12:44 | 47.93069 | -1.72184 | 37964 ft | 468 kts | 353° |
| 2026-05-04 12:44 | 47.99507 | -1.73120 | 37970 ft | 467 kts | 353° |
| 2026-05-04 12:45 | 48.04741 | -1.73884 | 37961 ft | 466 kts | 353° |
| 2026-05-04 12:45 | 48.11203 | -1.74481 | 37969 ft | 466 kts | 358° |
| 2026-05-04 12:46 | 48.17601 | -1.74477 | 37871 ft | 467 kts | 359° |
| 2026-05-04 12:46 | 48.20888 | -1.74447 | 37230 ft | 475 kts | 359° |
| 2026-05-04 12:46 | 48.24170 | -1.74436 | 36677 ft | 469 kts | 359° |
| 2026-05-04 12:46 | 48.27425 | -1.74445 | 36039 ft | 464 kts | 359° |
| 2026-05-04 12:47 | 48.30650 | -1.74470 | 35443 ft | 462 kts | 359° |
| 2026-05-04 12:47 | 48.33862 | -1.74505 | 34854 ft | 462 kts | 359° |
| 2026-05-04 12:47 | 48.37081 | -1.74545 | 34276 ft | 463 kts | 359° |
| 2026-05-04 12:47 | 48.40287 | -1.74586 | 33671 ft | 468 kts | 359° |
| 2026-05-04 12:48 | 48.43568 | -1.74628 | 33008 ft | 474 kts | 359° |
| 2026-05-04 12:48 | 48.46885 | -1.74670 | 32346 ft | 479 kts | 359° |
| 2026-05-04 12:48 | 48.50229 | -1.74710 | 31702 ft | 481 kts | 359° |
| 2026-05-04 12:48 | 48.53584 | -1.74750 | 31072 ft | 484 kts | 359° |
| 2026-05-04 12:49 | 48.56973 | -1.74790 | 30459 ft | 486 kts | 359° |
| 2026-05-04 12:49 | 48.60371 | -1.74830 | 29806 ft | 488 kts | 359° |
| 2026-05-04 12:49 | 48.63773 | -1.74871 | 29097 ft | 489 kts | 359° |
| 2026-05-04 12:49 | 48.67184 | -1.74911 | 28409 ft | 490 kts | 359° |
| 2026-05-04 12:50 | 48.70552 | -1.74952 | 27738 ft | 490 kts | 359° |
| 2026-05-04 12:50 | 48.73950 | -1.74992 | 27257 ft | 480 kts | 359° |
| 2026-05-04 12:50 | 48.77223 | -1.75031 | 26988 ft | 460 kts | 359° |
| 2026-05-04 12:50 | 48.80364 | -1.75068 | 26699 ft | 443 kts | 359° |
| 2026-05-04 12:51 | 48.83394 | -1.75105 | 26425 ft | 428 kts | 359° |
| 2026-05-04 12:51 | 48.86323 | -1.75141 | 26148 ft | 414 kts | 359° |
| 2026-05-04 12:51 | 48.89170 | -1.75176 | 25876 ft | 401 kts | 359° |
| 2026-05-04 12:51 | 48.91924 | -1.75201 | 25587 ft | 390 kts | 360° |
| 2026-05-04 12:52 | 48.94571 | -1.75144 | 25331 ft | 382 kts | 1° |
| 2026-05-04 12:52 | 48.97227 | -1.75036 | 25096 ft | 383 kts | 1° |
| 2026-05-04 12:52 | 48.99878 | -1.74915 | 24871 ft | 387 kts | 1° |
| 2026-05-04 12:52 | 49.02560 | -1.74795 | 24635 ft | 387 kts | 1° |
| 2026-05-04 12:53 | 49.05236 | -1.74680 | 24394 ft | 383 kts | 1° |
| 2026-05-04 12:53 | 49.07897 | -1.74572 | 24159 ft | 381 kts | 1° |
| 2026-05-04 12:53 | 49.10549 | -1.74468 | 23933 ft | 381 kts | 0° |
| 2026-05-04 12:53 | 49.13207 | -1.74366 | 23695 ft | 381 kts | 0° |
| 2026-05-04 12:54 | 49.15849 | -1.74266 | 23439 ft | 380 kts | 0° |
| 2026-05-04 12:54 | 49.18489 | -1.74166 | 23163 ft | 379 kts | 0° |
| 2026-05-04 12:54 | 49.21123 | -1.74067 | 22882 ft | 377 kts | 0° |
| 2026-05-04 12:54 | 49.23748 | -1.73968 | 22607 ft | 376 kts | 0° |
| 2026-05-04 12:55 | 49.26321 | -1.73871 | 22355 ft | 374 kts | 0° |
| 2026-05-04 12:55 | 49.28910 | -1.73773 | 22077 ft | 371 kts | 1° |
| 2026-05-04 12:55 | 49.31485 | -1.73675 | 21806 ft | 369 kts | 1° |
| 2026-05-04 12:55 | 49.34047 | -1.73578 | 21543 ft | 366 kts | 1° |
| 2026-05-04 12:56 | 49.36588 | -1.73481 | 21283 ft | 364 kts | 1° |
| 2026-05-04 12:56 | 49.39104 | -1.73386 | 21025 ft | 361 kts | 1° |
| 2026-05-04 12:56 | 49.41610 | -1.73290 | 20769 ft | 358 kts | 1° |
| 2026-05-04 12:56 | 49.44094 | -1.73196 | 20517 ft | 356 kts | 1° |
| 2026-05-04 12:57 | 49.46563 | -1.73102 | 20266 ft | 354 kts | 1° |
| 2026-05-04 12:57 | 49.49020 | -1.73008 | 20017 ft | 352 kts | 1° |
| 2026-05-04 12:57 | 49.51430 | -1.72916 | 19770 ft | 350 kts | 1° |
| 2026-05-04 12:57 | 49.53858 | -1.72823 | 19526 ft | 347 kts | 1° |
| 2026-05-04 12:58 | 49.56270 | -1.72731 | 19282 ft | 345 kts | 1° |
| 2026-05-04 12:58 | 49.58645 | -1.72640 | 19054 ft | 335 kts | 1° |
| 2026-05-04 12:58 | 49.60938 | -1.72819 | 18771 ft | 328 kts | 351° |
| 2026-05-04 12:58 | 49.63169 | -1.73442 | 18554 ft | 326 kts | 348° |
| 2026-05-04 12:59 | 49.65427 | -1.74146 | 18328 ft | 333 kts | 348° |
| 2026-05-04 12:59 | 49.67675 | -1.74853 | 18081 ft | 326 kts | 348° |
| 2026-05-04 12:59 | 49.69847 | -1.75525 | 17773 ft | 317 kts | 348° |
| 2026-05-04 12:59 | 49.71990 | -1.76176 | 17471 ft | 309 kts | 348° |
| 2026-05-04 13:00 | 49.74090 | -1.76807 | 17176 ft | 305 kts | 349° |
| 2026-05-04 13:00 | 49.76162 | -1.77425 | 16890 ft | 302 kts | 349° |
| 2026-05-04 13:00 | 49.78242 | -1.78043 | 16618 ft | 308 kts | 349° |
| 2026-05-04 13:00 | 49.80402 | -1.78683 | 16339 ft | 322 kts | 349° |
| 2026-05-04 13:01 | 49.82587 | -1.79330 | 16002 ft | 322 kts | 349° |
| 2026-05-04 13:01 | 49.84767 | -1.79975 | 15665 ft | 315 kts | 349° |
| 2026-05-04 13:01 | 49.86896 | -1.80605 | 15354 ft | 308 kts | 349° |
| 2026-05-04 13:01 | 49.88975 | -1.81221 | 15052 ft | 300 kts | 349° |
| 2026-05-04 13:02 | 49.91007 | -1.81824 | 14769 ft | 295 kts | 349° |
| 2026-05-04 13:02 | 49.93016 | -1.82421 | 14490 ft | 293 kts | 349° |
| 2026-05-04 13:02 | 49.95022 | -1.83017 | 14213 ft | 295 kts | 349° |
| 2026-05-04 13:02 | 49.97083 | -1.83630 | 13939 ft | 308 kts | 349° |
| 2026-05-04 13:03 | 49.99217 | -1.84263 | 13574 ft | 312 kts | 349° |
| 2026-05-04 13:03 | 50.01341 | -1.84510 | 13237 ft | 304 kts | 3° |
| 2026-05-04 13:03 | 50.03413 | -1.84224 | 12962 ft | 295 kts | 7° |
| 2026-05-04 13:03 | 50.05426 | -1.83860 | 12662 ft | 288 kts | 7° |
| 2026-05-04 13:04 | 50.07405 | -1.83528 | 12379 ft | 284 kts | 6° |
| 2026-05-04 13:04 | 50.09369 | -1.83232 | 12109 ft | 282 kts | 6° |
| 2026-05-04 13:04 | 50.11341 | -1.82953 | 11843 ft | 288 kts | 5° |
| 2026-05-04 13:04 | 50.13350 | -1.82675 | 11572 ft | 298 kts | 6° |
| 2026-05-04 13:05 | 50.15395 | -1.82152 | 11263 ft | 296 kts | 15° |
| 2026-05-04 13:05 | 50.17352 | -1.81296 | 10964 ft | 288 kts | 18° |
| 2026-05-04 13:05 | 50.19244 | -1.80392 | 10671 ft | 281 kts | 18° |
| 2026-05-04 13:05 | 50.21093 | -1.79507 | 10391 ft | 274 kts | 18° |
| 2026-05-04 13:06 | 50.22899 | -1.78655 | 10153 ft | 270 kts | 18° |
| 2026-05-04 13:06 | 50.24681 | -1.77828 | 10045 ft | 264 kts | 18° |
| 2026-05-04 13:06 | 50.26470 | -1.77006 | 9783 ft | 274 kts | 17° |
| 2026-05-04 13:06 | 50.28333 | -1.76155 | 9514 ft | 282 kts | 17° |
| 2026-05-04 13:07 | 50.30210 | -1.75303 | 9207 ft | 279 kts | 17° |
| 2026-05-04 13:07 | 50.32053 | -1.74470 | 8907 ft | 272 kts | 17° |
| 2026-05-04 13:07 | 50.33848 | -1.73660 | 8632 ft | 264 kts | 17° |
| 2026-05-04 13:07 | 50.35588 | -1.72875 | 8367 ft | 257 kts | 17° |
| 2026-05-04 13:08 | 50.37306 | -1.72099 | 8124 ft | 256 kts | 17° |
| 2026-05-04 13:08 | 50.39002 | -1.71333 | 7888 ft | 257 kts | 17° |
| 2026-05-04 13:08 | 50.40780 | -1.70529 | 7651 ft | 268 kts | 17° |
| 2026-05-04 13:08 | 50.42589 | -1.69711 | 7502 ft | 270 kts | 17° |
| 2026-05-04 13:09 | 50.44360 | -1.68911 | 7358 ft | 259 kts | 17° |
| 2026-05-04 13:09 | 50.46035 | -1.68153 | 7231 ft | 247 kts | 17° |
| 2026-05-04 13:09 | 50.47661 | -1.67417 | 7113 ft | 241 kts | 17° |
| 2026-05-04 13:09 | 50.49270 | -1.66688 | 7045 ft | 241 kts | 17° |
| 2026-05-04 13:10 | 50.50866 | -1.65847 | 7016 ft | 241 kts | 24° |
| 2026-05-04 13:10 | 50.52390 | -1.64788 | 7007 ft | 238 kts | 25° |
| 2026-05-04 13:10 | 50.53892 | -1.63710 | 7016 ft | 238 kts | 25° |
| 2026-05-04 13:10 | 50.55402 | -1.62630 | 7023 ft | 239 kts | 25° |
| 2026-05-04 13:11 | 50.56917 | -1.61555 | 7024 ft | 239 kts | 25° |
| 2026-05-04 13:11 | 50.58442 | -1.60482 | 7024 ft | 240 kts | 25° |
| 2026-05-04 13:11 | 50.59964 | -1.59416 | 7021 ft | 240 kts | 25° |
| 2026-05-04 13:11 | 50.60975 | -1.58710 | 7020 ft | 240 kts | 25° |
| 2026-05-04 13:12 | 50.62500 | -1.57646 | 7012 ft | 240 kts | 25° |
| 2026-05-04 13:12 | 50.64028 | -1.56580 | 6991 ft | 239 kts | 25° |
| 2026-05-04 13:12 | 50.65548 | -1.55536 | 6999 ft | 238 kts | 20° |
| 2026-05-04 13:12 | 50.67173 | -1.55297 | 6864 ft | 241 kts | 347° |
| 2026-05-04 13:13 | 50.68765 | -1.56355 | 6350 ft | 251 kts | 332° |
| 2026-05-04 13:13 | 50.70319 | -1.57628 | 5808 ft | 255 kts | 333° |
| 2026-05-04 13:13 | 50.71908 | -1.58918 | 5325 ft | 256 kts | 333° |
| 2026-05-04 13:13 | 50.73432 | -1.60144 | 5231 ft | 237 kts | 334° |
| 2026-05-04 13:14 | 50.74857 | -1.61282 | 5090 ft | 221 kts | 334° |
| 2026-05-04 13:14 | 50.76169 | -1.62327 | 4969 ft | 205 kts | 334° |
| 2026-05-04 13:14 | 50.77455 | -1.63347 | 4359 ft | 214 kts | 335° |
| 2026-05-04 13:14 | 50.78802 | -1.64414 | 3622 ft | 225 kts | 334° |
| 2026-05-04 13:15 | 50.80108 | -1.65442 | 2947 ft | 234 kts | 334° |
| 2026-05-04 13:15 | 50.81509 | -1.66803 | 2156 ft | 241 kts | 312° |
| 2026-05-04 13:15 | 50.82071 | -1.69140 | 1874 ft | 223 kts | 267° |
| 2026-05-04 13:15 | 50.81698 | -1.71418 | 1628 ft | 213 kts | 250° |
| 2026-05-04 13:16 | 50.81143 | -1.73536 | 1306 ft | 205 kts | 233° |
| 2026-05-04 13:16 | 50.80298 | -1.75223 | 1070 ft | 188 kts | 235° |
| 2026-05-04 13:16 | 50.79715 | -1.76949 | 840 ft | 171 kts | 244° |
| 2026-05-04 13:16 | 50.79288 | -1.78604 | 645 ft | 155 kts | 247° |
| 2026-05-04 13:17 | 50.78816 | -1.80031 | 510 ft | 149 kts | 237° |
| 2026-05-04 13:17 | 50.78460 | -1.81636 | 290 ft | 156 kts | 254° |
| 2026-05-04 13:17 | 50.78173 | -1.83209 | 59 ft | 140 kts | 254° |
| 2026-05-04 13:17 | 50.77964 | -1.84548 | 44 ft | 86 kts | 256° |
| 2026-05-04 13:18 | 50.77896 | -1.84963 | 45 ft | 23 kts | 253° |
| 2026-05-04 13:18 | 50.77856 | -1.85074 | 47 ft | 1 kts | 173° |
| 2026-05-04 13:18 | 50.77828 | -1.85043 | 46 ft | 7 kts | 140° |
| 2026-05-04 13:18 | 50.77800 | -1.84979 | 46 ft | 7 kts | 121° |
| 2026-05-04 13:19 | 50.77776 | -1.84912 | 43 ft | 7 kts | 119° |
| 2026-05-04 13:19 | 50.77753 | -1.84845 | 45 ft | 7 kts | 119° |
| 2026-05-04 13:19 | 50.77733 | -1.84779 | 43 ft | 7 kts | 110° |
| 2026-05-04 13:19 | 50.77717 | -1.84710 | 45 ft | 7 kts | 110° |
| 2026-05-04 13:20 | 50.77701 | -1.84642 | 45 ft | 6 kts | 110° |
| 2026-05-04 13:20 | 50.77686 | -1.84576 | 45 ft | 6 kts | 110° |
| 2026-05-04 13:20 | 50.77671 | -1.84511 | 47 ft | 6 kts | 110° |
| 2026-05-04 13:20 | 50.77665 | -1.84443 | 45 ft | 7 kts | 86° |
| 2026-05-04 13:21 | 50.77667 | -1.84368 | 45 ft | 7 kts | 91° |
| 2026-05-04 13:21 | 50.77665 | -1.84295 | 45 ft | 7 kts | 92° |
| 2026-05-04 13:21 | 50.77651 | -1.84227 | 42 ft | 7 kts | 114° |
| 2026-05-04 13:21 | 50.77633 | -1.84163 | 43 ft | 6 kts | 110° |
| 2026-05-04 13:22 | 50.77618 | -1.84097 | 45 ft | 6 kts | 108° |
| 2026-05-04 13:22 | 50.77605 | -1.84032 | 44 ft | 6 kts | 107° |
| 2026-05-04 13:22 | 50.77598 | -1.83965 | 45 ft | 6 kts | 98° |
| 2026-05-04 13:22 | 50.77591 | -1.83900 | 45 ft | 6 kts | 101° |
| 2026-05-04 13:23 | 50.77583 | -1.83836 | 45 ft | 6 kts | 101° |
| 2026-05-04 13:23 | 50.77576 | -1.83773 | 45 ft | 6 kts | 95° |
| 2026-05-04 13:23 | 50.77573 | -1.83710 | 45 ft | 6 kts | 93° |
| 2026-05-04 13:23 | 50.77571 | -1.83647 | 45 ft | 6 kts | 93° |
| 2026-05-04 13:24 | 50.77573 | -1.83585 | 45 ft | 6 kts | 81° |
| 2026-05-04 13:24 | 50.77585 | -1.83528 | 42 ft | 6 kts | 56° |
| 2026-05-04 13:24 | 50.77616 | -1.83490 | 45 ft | 6 kts | 28° |
| 2026-05-04 13:25 | 50.77694 | -1.83477 | 45 ft | 6 kts | 2° |
| 2026-05-04 13:25 | 50.77732 | -1.83463 | 45 ft | 6 kts | 5° |
| 2026-05-04 13:25 | 50.77764 | -1.83441 | 43 ft | 5 kts | 68° |
| 2026-05-04 13:25 | 50.77766 | -1.83392 | 45 ft | 4 kts | 85° |
| 2026-05-04 13:26 | 50.77766 | -1.83380 | 45 ft | 0 kts | 87° |